createdAt,value
2023-05-03T00:02:12.063Z,102139.72
2023-05-03T00:04:57.390Z,102140.63
2023-05-03T00:07:44.313Z,102142.75
2023-05-03T00:10:29.742Z,102135.88
2023-05-03T00:13:15.310Z,102138.75
2023-05-03T00:16:00.223Z,102143.97
2023-05-03T00:18:45.665Z,102136.47
2023-05-03T00:21:32.010Z,102136.03
2023-05-03T00:24:16.864Z,102127.47
2023-05-03T00:27:04.289Z,102134.94
2023-05-03T00:29:50.864Z,102140.25
2023-05-03T00:32:36.304Z,102147.44
2023-05-03T00:35:21.586Z,102142.78
2023-05-03T00:38:07.065Z,102142.22
2023-05-03T00:40:55.648Z,102130.03
2023-05-03T00:43:41.053Z,102132.78
2023-05-03T00:46:26.620Z,102128.88
2023-05-03T00:49:11.978Z,102122.25
2023-05-03T00:51:57.043Z,102124.28
2023-05-03T00:54:42.200Z,102130.00
2023-05-03T00:57:28.486Z,102131.34
2023-05-03T01:00:14.610Z,102135.41
2023-05-03T01:02:59.691Z,102139.44
2023-05-03T01:05:48.094Z,102136.56
2023-05-03T01:08:46.960Z,102140.19
2023-05-03T01:11:41.252Z,102127.59
2023-05-03T01:14:54.340Z,102135.00
2023-05-03T01:17:45.893Z,102123.47
2023-05-03T01:20:35.449Z,102125.66
2023-05-03T01:23:59.681Z,102120.25
2023-05-03T01:26:44.705Z,102130.47
2023-05-03T01:29:29.709Z,102128.63
2023-05-03T01:32:26.786Z,102130.03
2023-05-03T01:35:35.646Z,102131.59
2023-05-03T01:38:22.445Z,102145.03
2023-05-03T01:41:11.484Z,102151.91
2023-05-03T01:43:57.347Z,102159.94
2023-05-03T01:46:44.148Z,102159.72
2023-05-03T01:49:29.425Z,102159.94
2023-05-03T01:52:14.664Z,102167.94
2023-05-03T01:55:00.115Z,102162.47
2023-05-03T01:57:45.268Z,102174.16
2023-05-03T02:00:30.534Z,102163.72
2023-05-03T02:03:15.848Z,102165.69
2023-05-03T02:06:00.775Z,102167.81
2023-05-03T02:08:45.778Z,102176.81
2023-05-03T02:11:31.048Z,102167.81
2023-05-03T02:14:15.974Z,102167.38
2023-05-03T02:17:00.893Z,102170.13
2023-05-03T02:19:46.104Z,102175.69
2023-05-03T02:22:32.007Z,102177.06
2023-05-03T02:25:17.123Z,102175.59
2023-05-03T02:28:02.459Z,102168.00
2023-05-03T02:30:47.431Z,102166.31
2023-05-03T02:33:32.725Z,102175.72
2023-05-03T02:36:17.676Z,102177.16
2023-05-03T02:39:02.649Z,102185.34
2023-05-03T02:41:47.892Z,102182.31
2023-05-03T02:44:33.774Z,102190.59
2023-05-03T02:47:19.139Z,102197.16
2023-05-03T02:50:05.267Z,102198.09
2023-05-03T02:52:50.481Z,102198.97
2023-05-03T02:55:36.239Z,102193.84
2023-05-03T02:58:21.201Z,102203.84
2023-05-03T03:01:06.466Z,102198.84
2023-05-03T03:03:51.733Z,102200.84
2023-05-03T03:06:37.052Z,102197.28
2023-05-03T03:09:21.945Z,102200.34
2023-05-03T03:12:07.400Z,102189.66
2023-05-03T03:14:52.734Z,102198.78
2023-05-03T03:17:38.026Z,102198.41
2023-05-03T03:20:23.839Z,102195.00
2023-05-03T03:23:08.699Z,102192.19
2023-05-03T03:25:53.977Z,102189.28
2023-05-03T03:28:39.003Z,102195.44
2023-05-03T03:31:24.300Z,102194.91
2023-05-03T03:34:09.733Z,102201.91
2023-05-03T03:36:56.363Z,102185.22
2023-05-03T03:39:41.542Z,102185.84
2023-05-03T03:42:27.229Z,102190.53
2023-05-03T03:45:12.350Z,102185.41
2023-05-03T03:47:57.464Z,102194.91
2023-05-03T03:50:42.879Z,102180.97
2023-05-03T03:53:28.169Z,102187.19
2023-05-03T03:56:13.462Z,102186.94
2023-05-03T03:58:58.449Z,102177.91
2023-05-03T04:01:43.945Z,102179.28
2023-05-03T04:04:29.410Z,102182.66
2023-05-03T04:07:14.970Z,102180.63
2023-05-03T04:10:00.554Z,102180.88
2023-05-03T04:12:45.918Z,102176.91
2023-05-03T04:15:31.497Z,102178.44
2023-05-03T04:18:16.736Z,102184.91
2023-05-03T04:21:02.365Z,102178.28
2023-05-03T04:23:47.434Z,102181.25
2023-05-03T04:26:33.429Z,102186.25
2023-05-03T04:29:18.966Z,102186.31
2023-05-03T04:32:04.538Z,102197.66
2023-05-03T04:34:51.343Z,102191.53
2023-05-03T04:37:39.933Z,102183.25
2023-05-03T04:40:24.878Z,102176.31
2023-05-03T04:43:09.966Z,102180.78
2023-05-03T04:45:54.741Z,102180.44
2023-05-03T04:48:40.093Z,102179.78
2023-05-03T04:51:25.379Z,102174.59
2023-05-03T04:54:11.054Z,102175.47
2023-05-03T04:56:56.410Z,102164.16
2023-05-03T04:59:41.890Z,102162.03
2023-05-03T05:02:27.448Z,102160.59
2023-05-03T05:05:12.576Z,102155.69
2023-05-03T05:07:58.091Z,102167.81
2023-05-03T05:10:43.439Z,102172.47
2023-05-03T05:13:28.988Z,102177.78
2023-05-03T05:16:14.458Z,102176.53
2023-05-03T05:18:59.700Z,102174.13
2023-05-03T05:21:45.895Z,102176.09
2023-05-03T05:24:31.022Z,102179.78
2023-05-03T05:27:16.116Z,102171.53
2023-05-03T05:30:01.591Z,102169.97
2023-05-03T05:32:47.105Z,102175.13
2023-05-03T05:35:33.718Z,102176.94
2023-05-03T05:38:18.807Z,102180.94
2023-05-03T05:41:05.256Z,102180.81
2023-05-03T05:43:51.509Z,102182.31
2023-05-03T05:46:36.884Z,102191.38
2023-05-03T05:49:22.284Z,102182.91
2023-05-03T05:52:06.976Z,102180.88
2023-05-03T05:54:51.970Z,102171.03
2023-05-03T05:57:37.253Z,102165.56
2023-05-03T06:00:22.775Z,102158.34
2023-05-03T06:03:08.070Z,102146.47
2023-05-03T06:05:53.377Z,102132.34
2023-05-03T06:08:38.758Z,102129.50
2023-05-03T06:11:24.076Z,102135.13
2023-05-03T06:14:09.111Z,102113.03
2023-05-03T06:16:54.740Z,102105.34
2023-05-03T06:19:40.009Z,102099.22
2023-05-03T06:22:25.660Z,102086.75
2023-05-03T06:25:10.777Z,102076.56
2023-05-03T06:27:56.165Z,102054.19
2023-05-03T06:30:41.644Z,102023.06
2023-05-03T06:33:26.836Z,101996.72
2023-05-03T06:36:12.153Z,102000.66
2023-05-03T06:38:57.470Z,101980.50
2023-05-03T06:41:42.896Z,101972.75
2023-05-03T06:44:28.333Z,101972.53
2023-05-03T06:47:13.780Z,101944.75
2023-05-03T06:49:59.088Z,101934.59
2023-05-03T06:52:44.298Z,101947.09
2023-05-03T06:55:29.632Z,101936.06
2023-05-03T06:58:14.992Z,101933.59
2023-05-03T07:01:01.810Z,101938.47
2023-05-03T07:03:47.191Z,101922.88
2023-05-03T07:06:40.753Z,101926.19
2023-05-03T07:09:42.253Z,101935.75
2023-05-03T07:12:28.492Z,101954.56
2023-05-03T07:15:14.066Z,101957.03
2023-05-03T07:17:58.846Z,101960.44
2023-05-03T07:20:44.244Z,101938.78
2023-05-03T07:23:28.946Z,101928.75
2023-05-03T07:26:14.540Z,101937.81
2023-05-03T07:28:59.927Z,101939.72
2023-05-03T07:31:45.056Z,101935.84
2023-05-03T07:34:30.956Z,101903.59
2023-05-03T07:37:16.327Z,101868.78
2023-05-03T07:40:01.403Z,101851.75
2023-05-03T07:42:46.462Z,101830.97
2023-05-03T07:45:31.888Z,101845.88
2023-05-03T07:48:17.284Z,101860.25
2023-05-03T07:51:04.705Z,101856.28
2023-05-03T07:53:50.152Z,101809.28
2023-05-03T07:56:34.971Z,101800.94
2023-05-03T07:59:20.449Z,101829.97
2023-05-03T08:02:06.507Z,101799.41
2023-05-03T08:04:52.047Z,101793.53
2023-05-03T08:07:37.342Z,101802.69
2023-05-03T08:10:22.774Z,101801.00
2023-05-03T08:13:07.926Z,101806.75
2023-05-03T08:15:53.261Z,101831.78
2023-05-03T08:18:38.389Z,101785.63
2023-05-03T08:21:23.234Z,101804.78
2023-05-03T08:24:08.587Z,101778.66
2023-05-03T08:26:53.855Z,101794.72
2023-05-03T08:29:39.320Z,101784.97
2023-05-03T08:32:24.292Z,101775.81
2023-05-03T08:35:10.040Z,101797.78
2023-05-03T08:37:55.346Z,101802.06
2023-05-03T08:40:40.324Z,101803.72
2023-05-03T08:43:27.943Z,101807.97
2023-05-03T08:46:13.484Z,101775.56
2023-05-03T08:48:58.989Z,101791.72
2023-05-03T08:51:46.189Z,101765.22
2023-05-03T08:54:31.302Z,101790.84
2023-05-03T08:57:17.545Z,101815.34
2023-05-03T09:00:03.980Z,101792.47
2023-05-03T09:02:49.613Z,101769.97
2023-05-03T09:05:36.496Z,101751.69
2023-05-03T09:08:21.862Z,101783.78
2023-05-03T09:11:21.008Z,101803.81
2023-05-03T09:14:09.096Z,101820.88
2023-05-03T09:16:54.690Z,101794.50
2023-05-03T09:19:53.546Z,101777.66
2023-05-03T09:22:51.017Z,101780.78
2023-05-03T09:25:42.791Z,101760.28
2023-05-03T09:28:27.869Z,101780.19
2023-05-03T09:31:13.616Z,101788.78
2023-05-03T09:33:59.043Z,101827.38
2023-05-03T09:36:46.854Z,101747.19
2023-05-03T09:39:32.514Z,101752.56
2023-05-03T09:42:19.063Z,101763.19
2023-05-03T09:45:05.295Z,101752.13
2023-05-03T09:47:50.709Z,101744.97
2023-05-03T09:50:36.616Z,101757.59
2023-05-03T09:53:22.693Z,101760.06
2023-05-03T09:56:11.504Z,101763.03
2023-05-03T09:58:56.832Z,101790.19
2023-05-03T10:01:41.991Z,101746.88
2023-05-03T10:04:29.001Z,101723.56
2023-05-03T10:07:17.918Z,101768.03
2023-05-03T10:10:03.340Z,101753.16
2023-05-03T10:12:49.325Z,101787.38
2023-05-03T10:15:37.510Z,101736.81
2023-05-03T10:18:26.574Z,101754.47
2023-05-03T10:21:20.662Z,101746.91
2023-05-03T10:24:13.738Z,101745.84
2023-05-03T10:27:00.010Z,101722.88
2023-05-03T10:29:45.755Z,101767.16
2023-05-03T10:32:35.850Z,101729.56
2023-05-03T10:35:21.465Z,101726.78
2023-05-03T10:38:19.902Z,101723.13
2023-05-03T10:41:05.360Z,101765.16
2023-05-03T10:43:50.763Z,101805.25
2023-05-03T10:46:35.928Z,101789.56
2023-05-03T10:49:23.288Z,101765.06
2023-05-03T10:52:39.680Z,101753.97
2023-05-03T10:55:24.990Z,101744.31
2023-05-03T10:58:14.912Z,101760.19
2023-05-03T11:01:03.282Z,101734.13
2023-05-03T11:04:12.091Z,101715.38
2023-05-03T11:06:57.129Z,101714.81
2023-05-03T11:09:42.418Z,101692.66
2023-05-03T11:12:27.969Z,101667.41
2023-05-03T11:15:13.327Z,101662.84
2023-05-03T11:17:59.147Z,101696.84
2023-05-03T11:20:44.496Z,101663.38
2023-05-03T11:23:29.849Z,101674.81
2023-05-03T11:26:15.159Z,101694.13
2023-05-03T11:29:00.324Z,101621.59
2023-05-03T11:31:45.850Z,101662.47
2023-05-03T11:34:31.072Z,101685.09
2023-05-03T11:37:16.441Z,101666.00
2023-05-03T11:40:01.897Z,101604.50
2023-05-03T11:43:06.235Z,101625.13
2023-05-03T11:45:54.711Z,101655.09
2023-05-03T11:48:40.321Z,101620.59
2023-05-03T11:51:25.889Z,101652.47
2023-05-03T11:54:24.214Z,101603.63
2023-05-03T11:57:13.499Z,101617.25
2023-05-03T12:00:12.150Z,101646.81
2023-05-03T12:02:59.486Z,101602.06
2023-05-03T12:05:46.192Z,101645.44
2023-05-03T12:08:35.266Z,101621.84
2023-05-03T12:11:23.310Z,101627.66
2023-05-03T12:14:11.254Z,101638.47
2023-05-03T12:16:57.159Z,101560.53
2023-05-03T12:19:43.789Z,101638.44
2023-05-03T12:22:30.661Z,101579.97
2023-05-03T12:25:16.199Z,101577.19
2023-05-03T12:31:00.247Z,101550.31
2023-05-03T12:34:01.634Z,101539.84
2023-05-03T12:36:53.918Z,101558.91
2023-05-03T12:39:40.669Z,101538.09
2023-05-03T12:45:13.065Z,101512.66
2023-05-03T12:47:59.221Z,101485.69
2023-05-03T12:50:45.542Z,101525.81
2023-05-03T12:53:31.413Z,101533.69
2023-05-03T12:56:17.059Z,101596.44
2023-05-03T12:59:34.319Z,101547.34
2023-05-03T13:05:01.010Z,101446.41
2023-05-03T13:07:52.306Z,101514.50
2023-05-03T13:10:41.432Z,101523.19
2023-05-03T13:13:27.200Z,101527.50
2023-05-03T13:16:12.080Z,101499.47
2023-05-03T13:18:57.317Z,101517.97
2023-05-03T13:21:42.766Z,101537.22
2023-05-03T13:24:28.092Z,101492.66
2023-05-03T13:27:13.078Z,101510.00
2023-05-03T13:30:00.440Z,101512.59
2023-05-03T13:32:45.451Z,101527.22
2023-05-03T13:35:30.772Z,101542.31
2023-05-03T13:38:16.451Z,101523.00
2023-05-03T13:41:06.545Z,101527.53
2023-05-03T13:43:51.418Z,101534.50
2023-05-03T13:46:37.748Z,101503.16
2023-05-03T13:49:22.776Z,101485.69
2023-05-03T13:52:07.874Z,101491.72
2023-05-03T13:54:52.710Z,101462.63
2023-05-03T13:57:37.742Z,101511.59
2023-05-03T14:00:22.905Z,101499.38
2023-05-03T14:03:08.318Z,101498.66
2023-05-03T14:05:53.528Z,101494.97
2023-05-03T14:08:38.440Z,101482.41
2023-05-03T14:11:24.216Z,101493.03
2023-05-03T14:14:09.079Z,101465.06
2023-05-03T14:16:54.010Z,101494.66
2023-05-03T14:19:39.261Z,101503.50
2023-05-03T14:22:24.323Z,101499.16
2023-05-03T14:25:09.750Z,101522.94
2023-05-03T14:27:55.503Z,101485.53
2023-05-03T14:30:40.901Z,101509.13
2023-05-03T14:33:26.148Z,101497.78
2023-05-03T14:36:11.598Z,101490.88
2023-05-03T14:38:56.819Z,101471.69
2023-05-03T14:41:44.187Z,101462.06
2023-05-03T14:44:29.448Z,101453.97
2023-05-03T14:47:14.710Z,101474.81
2023-05-03T14:50:00.473Z,101455.75
2023-05-03T14:52:45.343Z,101460.09
2023-05-03T14:55:30.345Z,101443.25
2023-05-03T14:58:15.859Z,101469.66
2023-05-03T15:01:01.167Z,101448.84
2023-05-03T15:03:46.826Z,101418.38
2023-05-03T15:06:32.117Z,101430.53
2023-05-03T15:09:17.694Z,101416.41
2023-05-03T15:12:02.633Z,101441.81
2023-05-03T15:14:47.515Z,101427.91
2023-05-03T15:17:32.896Z,101403.31
2023-05-03T15:20:18.022Z,101423.34
2023-05-03T15:23:04.613Z,101412.13
2023-05-03T15:25:49.642Z,101451.47
2023-05-03T15:28:35.108Z,101406.69
2023-05-03T15:31:20.673Z,101425.78
2023-05-03T15:34:06.188Z,101445.25
2023-05-03T15:36:51.328Z,101392.72
2023-05-03T15:39:36.746Z,101421.31
2023-05-03T15:42:23.351Z,101423.16
2023-05-03T15:45:09.089Z,101438.84
2023-05-03T15:47:57.393Z,101426.66
2023-05-03T15:50:42.841Z,101414.53
2023-05-03T15:53:28.123Z,101429.53
2023-05-03T15:56:13.439Z,101447.00
2023-05-03T15:58:58.394Z,101429.63
2023-05-03T16:01:43.854Z,101427.03
2023-05-03T16:04:29.396Z,101404.53
2023-05-03T16:07:18.149Z,101399.19
2023-05-03T16:10:03.738Z,101391.22
2023-05-03T16:12:49.677Z,101406.13
2023-05-03T16:15:35.229Z,101406.13
2023-05-03T16:18:20.304Z,101416.59
2023-05-03T16:21:05.260Z,101415.41
2023-05-03T16:23:51.892Z,101414.66
2023-05-03T16:26:37.095Z,101424.25
2023-05-03T16:29:22.410Z,101413.63
2023-05-03T16:32:07.389Z,101458.22
2023-05-03T16:34:52.746Z,101448.78
2023-05-03T16:37:37.839Z,101462.59
2023-05-03T16:40:23.069Z,101453.66
2023-05-03T16:43:08.478Z,101441.38
2023-05-03T16:46:01.052Z,101472.75
2023-05-03T16:48:46.517Z,101462.25
2023-05-03T16:51:33.371Z,101453.44
2023-05-03T16:54:18.373Z,101468.28
2023-05-03T16:57:04.246Z,101463.81
2023-05-03T16:59:49.171Z,101463.69
2023-05-03T17:02:38.031Z,101469.78
2023-05-03T17:05:23.614Z,101478.59
2023-05-03T17:08:08.848Z,101482.19
2023-05-03T17:10:54.328Z,101504.81
2023-05-03T17:13:41.023Z,101473.41
2023-05-03T17:16:26.320Z,101472.41
2023-05-03T17:19:11.483Z,101475.84
2023-05-03T17:21:57.026Z,101469.50
2023-05-03T17:24:42.197Z,101483.72
2023-05-03T17:27:27.271Z,101493.28
2023-05-03T17:30:12.785Z,101496.16
2023-05-03T17:32:58.374Z,101490.81
2023-05-03T17:35:44.014Z,101486.41
2023-05-03T17:38:29.100Z,101491.56
2023-05-03T17:41:14.687Z,101491.69
2023-05-03T17:43:59.781Z,101501.13
2023-05-03T17:46:45.270Z,101496.72
2023-05-03T17:49:33.133Z,101497.56
2023-05-03T17:52:18.457Z,101510.53
2023-05-03T17:55:03.749Z,101503.56
2023-05-03T17:57:49.194Z,101501.53
2023-05-03T18:00:34.222Z,101500.22
2023-05-03T18:03:19.794Z,101511.41
2023-05-03T18:06:10.525Z,101524.31
2023-05-03T18:08:55.984Z,101518.94
2023-05-03T18:11:41.387Z,101530.25
2023-05-03T18:14:26.757Z,101532.81
2023-05-03T18:17:12.079Z,101539.72
2023-05-03T18:19:57.407Z,101544.78
2023-05-03T18:22:42.685Z,101548.22
2023-05-03T18:25:28.016Z,101548.22
2023-05-03T18:28:13.427Z,101548.81
2023-05-03T18:30:58.339Z,101559.16
2023-05-03T18:33:43.736Z,101561.59
2023-05-03T18:36:29.111Z,101570.00
2023-05-03T18:39:14.034Z,101570.91
2023-05-03T18:41:59.413Z,101577.97
2023-05-03T18:44:44.252Z,101576.16
2023-05-03T18:47:29.314Z,101577.84
2023-05-03T18:50:14.982Z,101575.97
2023-05-03T18:52:59.974Z,101584.47
2023-05-03T18:55:45.349Z,101575.53
2023-05-03T18:58:31.353Z,101586.72
2023-05-03T19:01:16.728Z,101577.06
2023-05-03T19:04:01.884Z,101596.94
2023-05-03T19:06:47.194Z,101593.03
2023-05-03T19:09:31.988Z,101592.69
2023-05-03T19:12:16.888Z,101609.25
2023-05-03T19:15:02.263Z,101612.66
2023-05-03T19:17:47.781Z,101619.47
2023-05-03T19:20:33.145Z,101630.47
2023-05-03T19:23:18.115Z,101632.88
2023-05-03T19:26:03.380Z,101631.28
2023-05-03T19:28:48.507Z,101646.78
2023-05-03T19:31:35.158Z,101646.66
2023-05-03T19:34:20.133Z,101647.00
2023-05-03T19:37:05.571Z,101649.53
2023-05-03T19:39:50.988Z,101650.53
2023-05-03T19:42:35.986Z,101654.78
2023-05-03T19:45:21.448Z,101646.66
2023-05-03T19:48:06.771Z,101660.88
2023-05-03T19:50:52.001Z,101651.44
2023-05-03T19:53:37.302Z,101651.56
2023-05-03T19:56:22.916Z,101653.19
2023-05-03T19:59:09.106Z,101653.75
2023-05-03T20:01:54.652Z,101651.41
2023-05-03T20:04:39.920Z,101647.56
2023-05-03T20:07:25.151Z,101665.41
2023-05-03T20:10:10.630Z,101656.69
2023-05-03T20:12:55.797Z,101646.25
2023-05-03T20:15:41.223Z,101658.84
2023-05-03T20:18:26.477Z,101665.63
2023-05-03T20:21:11.870Z,101655.34
2023-05-03T20:23:57.565Z,101652.00
2023-05-03T20:26:42.698Z,101660.97
2023-05-03T20:29:27.840Z,101666.88
2023-05-03T20:32:13.071Z,101668.22
2023-05-03T20:34:58.420Z,101658.00
2023-05-03T20:37:44.142Z,101666.31
2023-05-03T20:40:29.573Z,101662.91
2023-05-03T20:43:14.950Z,101658.75
2023-05-03T20:45:59.968Z,101654.78
2023-05-03T20:48:45.200Z,101658.56
2023-05-03T20:51:31.151Z,101662.28
2023-05-03T20:54:16.352Z,101667.28
2023-05-03T20:57:01.833Z,101662.25
2023-05-03T20:59:46.935Z,101660.47
2023-05-03T21:02:32.552Z,101651.22
2023-05-03T21:05:17.713Z,101644.06
2023-05-03T21:08:02.739Z,101645.63
2023-05-03T21:10:48.173Z,101644.81
2023-05-03T21:13:33.270Z,101642.84
2023-05-03T21:16:18.663Z,101639.16
2023-05-03T21:19:04.190Z,101648.97
2023-05-03T21:21:49.343Z,101646.06
2023-05-03T21:24:35.084Z,101655.38
2023-05-03T21:27:20.580Z,101652.25
2023-05-03T21:30:06.789Z,101652.94
2023-05-03T21:32:52.015Z,101646.81
2023-05-03T21:35:37.452Z,101654.94
2023-05-03T21:38:22.272Z,101646.72
2023-05-03T21:41:07.993Z,101644.16
2023-05-03T21:43:52.996Z,101643.72
2023-05-03T21:46:40.790Z,101641.63
2023-05-03T21:49:26.277Z,101646.38
2023-05-03T21:52:11.646Z,101639.47
2023-05-03T21:54:57.123Z,101637.13
2023-05-03T21:57:42.594Z,101631.25
2023-05-03T22:00:27.923Z,101644.34
2023-05-03T22:03:12.850Z,101649.53
2023-05-03T22:05:58.038Z,101644.72
2023-05-03T22:08:42.963Z,101643.22
2023-05-03T22:11:28.662Z,101663.50
2023-05-03T22:14:14.052Z,101661.00
2023-05-03T22:16:59.471Z,101674.53
2023-05-03T22:19:44.830Z,101678.31
2023-05-03T22:22:29.916Z,101671.50
2023-05-03T22:25:22.635Z,101685.84
2023-05-03T22:28:07.594Z,101691.69
2023-05-03T22:30:52.984Z,101700.94
2023-05-03T22:33:38.397Z,101710.56
2023-05-03T22:36:23.694Z,101720.25
2023-05-03T22:39:09.308Z,101723.41
2023-05-03T22:41:54.708Z,101734.28
2023-05-03T22:44:39.644Z,101724.94
2023-05-03T22:47:25.065Z,101720.88
2023-05-03T22:50:10.888Z,101694.56
2023-05-03T22:52:56.303Z,101696.31
2023-05-03T22:55:41.562Z,101699.97
2023-05-03T22:58:26.698Z,101697.84
2023-05-03T23:01:11.665Z,101698.81
2023-05-03T23:03:57.533Z,101696.00
2023-05-03T23:06:42.818Z,101701.81
2023-05-03T23:09:28.114Z,101704.75
2023-05-03T23:12:12.942Z,101699.50
2023-05-03T23:14:58.208Z,101705.16
2023-05-03T23:17:43.697Z,101717.81
2023-05-03T23:20:29.329Z,101717.78
2023-05-03T23:23:14.579Z,101709.78
2023-05-03T23:25:59.930Z,101709.69
2023-05-03T23:28:45.332Z,101708.13
2023-05-03T23:31:32.968Z,101695.94
2023-05-03T23:34:19.566Z,101686.56
2023-05-03T23:37:04.987Z,101693.75
2023-05-03T23:39:50.110Z,101694.78
2023-05-03T23:42:35.399Z,101707.38
2023-05-03T23:45:20.654Z,101705.56
2023-05-03T23:48:06.264Z,101695.06
2023-05-03T23:50:51.393Z,101694.19
2023-05-03T23:53:36.793Z,101686.59
2023-05-03T23:56:22.125Z,101683.59
2023-05-03T23:59:06.996Z,101677.16
